Ardmore, Missouri
Current Conditions -  °F | °C
As of 9:55 PM on Saturday 25 Oct 2014 (Local Time) from KIRK Reporting Station
Clear Clear  
Wind Chill: 14°   Ceiling: Unl
Heat Index: 14°   Visibility: 10mi
Dew Point:   Wind: 6mph
Humidity: 64%   Direction: 40°NE
Pressure: 30.06"   Gusts: NA
Location:  39.6493°N, 92.4492°W
Report Text: KIRK 260255Z AUTO 04005KT 10SM CLR 14/07 A3006 RMK AO2 SLP180 T01390072 53006
Loading
Personal Weather Stations






























Interactive Weather Map
Tropical Storm Tracking
New forecast layout! Learn more

10-Day Weather Forecast

Advertisements
Track Severe Weather on mobile